首页
METAR-TAF:

METAR-TAF

机场 :

奥古斯塔, 喬治亞, 美国

纬度: 33-21-52N, 经度: 081-57-48W, 海拔: 44米

当前天气观测

该预报发布于18分钟前的14:37 UTC
风速6节,风向北转东北
温度 26°C
湿度 58%
气压 1024 hPa
能見度: 16.1公里
多云层高于2900英尺
多云层高于3400英尺

METAR: KAGS 011437Z 03006KT 10SM BKN029 BKN034 26/17 A3025 RMK AO2 T02610172

时间: 10:55 (14:55 UTC)

预报

该预报发布于3小时和34分钟前的11:21 UTC
预报有效从01日的 12点(UTC)到 02日的 12点(UTC)
风速4节,风向多变
能見度: 10公里
天空无云
从 01日的 1400点(UTC)
风速7节,风向
能見度: 10公里
少量云层高于6000英尺
从 01日的 2200点(UTC)
风速3节,风向东转东南
能見度: 10公里
少量云层高于5000英尺

TAF: KAGS 011121Z 0112/0212 VRB04KT P6SM SKC FM011400 08007KT P6SM FEW060 FM012200 11003KT P6SM FEW050

超过4000个机场的气象观测和天气预报(METAR&TAF报告)。

可查询的气象台以黄色和红色小点在地图上表示。

将鼠标移到小点上方,可查看气象台名称。

然后点击查看天气观测和预报。

如需切换地图:点击带黑十字的绿色按钮放大地图;点击带横线的绿色按钮缩小地图;或者点击绿色箭头查看邻近地区的地图。


METAR-TAF: